sensor_id;sensor_type;location;lat;lon;timestamp;temperature;humidity
63051;SHT30;49136;47.416;19.402;2022-12-07T00:01:32;-1.25;99.99
63051;SHT30;49136;47.416;19.402;2022-12-07T00:03:59;-1.35;99.99
63051;SHT30;49136;47.416;19.402;2022-12-07T00:06:32;-1.45;99.99
63051;SHT30;49136;47.416;19.402;2022-12-07T00:08:58;-1.57;99.99
63051;SHT30;49136;47.416;19.402;2022-12-07T00:11:23;-1.49;99.99
63051;SHT30;49136;47.416;19.402;2022-12-07T00:13:54;-1.32;99.99
63051;SHT30;49136;47.416;19.402;2022-12-07T00:16:22;-1.25;99.99
63051;SHT30;49136;47.416;19.402;2022-12-07T00:18:48;-1.35;99.99
63051;SHT30;49136;47.416;19.402;2022-12-07T00:21:16;-1.52;99.99
63051;SHT30;49136;47.416;19.402;2022-12-07T00:23:43;-1.66;99.99
63051;SHT30;49136;47.416;19.402;2022-12-07T00:26:17;-1.75;99.99
63051;SHT30;49136;47.416;19.402;2022-12-07T00:28:54;-1.78;99.99
63051;SHT30;49136;47.416;19.402;2022-12-07T00:31:22;-1.78;99.99
63051;SHT30;49136;47.416;19.402;2022-12-07T00:33:48;-1.77;99.99
63051;SHT30;49136;47.416;19.402;2022-12-07T00:36:16;-1.57;99.99
63051;SHT30;49136;47.416;19.402;2022-12-07T00:38:42;-1.63;99.99
63051;SHT30;49136;47.416;19.402;2022-12-07T00:41:16;-1.73;99.99
63051;SHT30;49136;47.416;19.402;2022-12-07T00:43:42;-1.88;99.99
63051;SHT30;49136;47.416;19.402;2022-12-07T00:46:08;-1.99;99.99
63051;SHT30;49136;47.416;19.402;2022-12-07T00:48:34;-2.08;99.99
63051;SHT30;49136;47.416;19.402;2022-12-07T00:50:59;-2.12;99.99
63051;SHT30;49136;47.416;19.402;2022-12-07T00:53:26;-2.18;99.99
63051;SHT30;49136;47.416;19.402;2022-12-07T00:55:52;-2.23;99.99
63051;SHT30;49136;47.416;19.402;2022-12-07T00:58:18;-2.25;99.99
63051;SHT30;49136;47.416;19.402;2022-12-07T01:00:43;-2.28;99.99
63051;SHT30;49136;47.416;19.402;2022-12-07T01:03:11;-2.25;99.99
63051;SHT30;49136;47.416;19.402;2022-12-07T01:05:36;-2.21;99.99
63051;SHT30;49136;47.416;19.402;2022-12-07T01:08:02;-1.99;99.99
63051;SHT30;49136;47.416;19.402;2022-12-07T01:10:28;-1.78;99.99
63051;SHT30;49136;47.416;19.402;2022-12-07T01:12:56;-1.66;99.99
63051;SHT30;49136;47.416;19.402;2022-12-07T01:15:21;-1.47;99.99
63051;SHT30;49136;47.416;19.402;2022-12-07T01:17:47;-1.32;99.99
63051;SHT30;49136;47.416;19.402;2022-12-07T01:20:13;-1.32;99.99
63051;SHT30;49136;47.416;19.402;2022-12-07T01:22:39;-1.27;99.99
63051;SHT30;49136;47.416;19.402;2022-12-07T01:25:06;-1.16;99.99
63051;SHT30;49136;47.416;19.402;2022-12-07T01:27:32;-1.14;99.99
63051;SHT30;49136;47.416;19.402;2022-12-07T01:29:58;-1.22;99.99
63051;SHT30;49136;47.416;19.402;2022-12-07T01:32:23;-1.36;99.99
63051;SHT30;49136;47.416;19.402;2022-12-07T01:34:49;-1.31;99.99
63051;SHT30;49136;47.416;19.402;2022-12-07T01:37:14;-0.96;99.99
63051;SHT30;49136;47.416;19.402;2022-12-07T01:39:40;-0.88;99.99
63051;SHT30;49136;47.416;19.402;2022-12-07T01:42:10;-0.70;99.99
63051;SHT30;49136;47.416;19.402;2022-12-07T01:47:38;-0.62;99.99
63051;SHT30;49136;47.416;19.402;2022-12-07T01:50:04;-0.59;99.99
63051;SHT30;49136;47.416;19.402;2022-12-07T01:52:31;-0.46;99.99
63051;SHT30;49136;47.416;19.402;2022-12-07T01:55:02;-0.45;99.99
63051;SHT30;49136;47.416;19.402;2022-12-07T01:57:29;-0.41;99.99
63051;SHT30;49136;47.416;19.402;2022-12-07T01:59:56;-0.41;99.99
63051;SHT30;49136;47.416;19.402;2022-12-07T02:02:27;-0.46;99.99
63051;SHT30;49136;47.416;19.402;2022-12-07T02:04:54;-0.31;99.99
63051;SHT30;49136;47.416;19.402;2022-12-07T02:07:21;-0.34;99.99
63051;SHT30;49136;47.416;19.402;2022-12-07T02:09:47;-0.34;99.99
63051;SHT30;49136;47.416;19.402;2022-12-07T02:12:13;-0.34;99.99
63051;SHT30;49136;47.416;19.402;2022-12-07T02:14:38;-0.34;99.99
63051;SHT30;49136;47.416;19.402;2022-12-07T02:17:21;-0.29;99.99
63051;SHT30;49136;47.416;19.402;2022-12-07T02:26:08;-0.22;99.99
63051;SHT30;49136;47.416;19.402;2022-12-07T02:28:54;-0.22;99.99
63051;SHT30;49136;47.416;19.402;2022-12-07T02:31:30;-0.20;99.99
63051;SHT30;49136;47.416;19.402;2022-12-07T02:34:08;-0.17;99.99
63051;SHT30;49136;47.416;19.402;2022-12-07T02:36:40;-0.15;99.99
63051;SHT30;49136;47.416;19.402;2022-12-07T02:39:08;-0.15;99.99
63051;SHT30;49136;47.416;19.402;2022-12-07T02:41:40;-0.18;99.99
63051;SHT30;49136;47.416;19.402;2022-12-07T02:44:10;-0.18;99.99
63051;SHT30;49136;47.416;19.402;2022-12-07T02:46:44;-0.15;99.99
63051;SHT30;49136;47.416;19.402;2022-12-07T02:49:12;-0.17;99.99
63051;SHT30;49136;47.416;19.402;2022-12-07T02:51:42;-0.13;99.99
63051;SHT30;49136;47.416;19.402;2022-12-07T02:54:13;-0.13;99.99
63051;SHT30;49136;47.416;19.402;2022-12-07T03:08:10;-0.01;99.99
63051;SHT30;49136;47.416;19.402;2022-12-07T03:13:34;0.04;99.99
63051;SHT30;49136;47.416;19.402;2022-12-07T03:16:12;0.08;99.99
63051;SHT30;49136;47.416;19.402;2022-12-07T03:18:59;0.14;99.99
63051;SHT30;49136;47.416;19.402;2022-12-07T03:21:39;0.15;99.99
63051;SHT30;49136;47.416;19.402;2022-12-07T03:24:11;0.21;99.99
63051;SHT30;49136;47.416;19.402;2022-12-07T03:26:38;0.25;99.99
63051;SHT30;49136;47.416;19.402;2022-12-07T03:29:08;0.28;99.99
63051;SHT30;49136;47.416;19.402;2022-12-07T03:31:41;0.29;99.99
63051;SHT30;49136;47.416;19.402;2022-12-07T03:37:01;0.35;99.99
63051;SHT30;49136;47.416;19.402;2022-12-07T03:42:12;0.44;99.99
63051;SHT30;49136;47.416;19.402;2022-12-07T03:44:38;0.45;99.99
63051;SHT30;49136;47.416;19.402;2022-12-07T03:47:05;0.50;99.99
63051;SHT30;49136;47.416;19.402;2022-12-07T03:52:17;0.52;99.99
63051;SHT30;49136;47.416;19.402;2022-12-07T03:54:54;0.59;99.99
63051;SHT30;49136;47.416;19.402;2022-12-07T03:57:22;0.62;99.99
63051;SHT30;49136;47.416;19.402;2022-12-07T03:59:49;0.62;99.99
63051;SHT30;49136;47.416;19.402;2022-12-07T04:02:16;0.63;99.99
63051;SHT30;49136;47.416;19.402;2022-12-07T04:04:42;0.65;99.99
63051;SHT30;49136;47.416;19.402;2022-12-07T04:07:08;0.67;99.99
63051;SHT30;49136;47.416;19.402;2022-12-07T04:09:34;0.69;99.99
63051;SHT30;49136;47.416;19.402;2022-12-07T04:12:00;0.67;99.99
63051;SHT30;49136;47.416;19.402;2022-12-07T04:14:25;0.69;99.99
63051;SHT30;49136;47.416;19.402;2022-12-07T04:16:53;0.69;99.99
63051;SHT30;49136;47.416;19.402;2022-12-07T04:19:20;0.72;99.99
63051;SHT30;49136;47.416;19.402;2022-12-07T04:21:47;0.69;99.99
63051;SHT30;49136;47.416;19.402;2022-12-07T04:24:13;0.70;99.99
63051;SHT30;49136;47.416;19.402;2022-12-07T04:26:40;0.74;99.99
63051;SHT30;49136;47.416;19.402;2022-12-07T04:29:06;0.77;99.99
63051;SHT30;49136;47.416;19.402;2022-12-07T04:31:31;0.77;99.99
63051;SHT30;49136;47.416;19.402;2022-12-07T04:33:56;0.80;99.99
63051;SHT30;49136;47.416;19.402;2022-12-07T04:36:22;0.83;99.99
63051;SHT30;49136;47.416;19.402;2022-12-07T04:38:47;0.84;99.99
63051;SHT30;49136;47.416;19.402;2022-12-07T04:41:13;0.84;99.99
63051;SHT30;49136;47.416;19.402;2022-12-07T04:43:39;0.85;99.99
63051;SHT30;49136;47.416;19.402;2022-12-07T04:46:04;0.87;99.99
63051;SHT30;49136;47.416;19.402;2022-12-07T04:48:30;0.90;99.99
63051;SHT30;49136;47.416;19.402;2022-12-07T04:50:56;0.90;99.99
63051;SHT30;49136;47.416;19.402;2022-12-07T04:53:22;0.88;99.99
63051;SHT30;49136;47.416;19.402;2022-12-07T04:55:47;0.93;99.99
63051;SHT30;49136;47.416;19.402;2022-12-07T04:58:13;0.94;99.99
63051;SHT30;49136;47.416;19.402;2022-12-07T05:00:39;0.94;99.99
63051;SHT30;49136;47.416;19.402;2022-12-07T05:03:05;0.94;99.99
63051;SHT30;49136;47.416;19.402;2022-12-07T05:05:31;0.91;99.99
63051;SHT30;49136;47.416;19.402;2022-12-07T05:07:56;0.93;99.99
63051;SHT30;49136;47.416;19.402;2022-12-07T05:10:21;0.91;99.99
63051;SHT30;49136;47.416;19.402;2022-12-07T05:12:47;0.95;99.99
63051;SHT30;49136;47.416;19.402;2022-12-07T05:15:14;0.94;99.99
63051;SHT30;49136;47.416;19.402;2022-12-07T05:17:40;0.95;99.99
63051;SHT30;49136;47.416;19.402;2022-12-07T05:20:06;0.95;99.99
63051;SHT30;49136;47.416;19.402;2022-12-07T05:22:31;0.94;99.99
63051;SHT30;49136;47.416;19.402;2022-12-07T05:24:57;0.88;99.99
63051;SHT30;49136;47.416;19.402;2022-12-07T05:27:22;0.93;99.99
63051;SHT30;49136;47.416;19.402;2022-12-07T05:29:50;0.94;99.99
63051;SHT30;49136;47.416;19.402;2022-12-07T05:32:15;0.95;99.99
63051;SHT30;49136;47.416;19.402;2022-12-07T05:34:41;0.98;99.99
63051;SHT30;49136;47.416;19.402;2022-12-07T05:37:06;1.00;99.99
63051;SHT30;49136;47.416;19.402;2022-12-07T05:39:32;1.01;99.99
63051;SHT30;49136;47.416;19.402;2022-12-07T05:41:57;1.02;99.99
63051;SHT30;49136;47.416;19.402;2022-12-07T05:44:42;1.05;99.99
63051;SHT30;49136;47.416;19.402;2022-12-07T05:47:08;1.05;99.99
63051;SHT30;49136;47.416;19.402;2022-12-07T05:49:33;1.07;99.99
63051;SHT30;49136;47.416;19.402;2022-12-07T05:51:59;1.08;99.99
63051;SHT30;49136;47.416;19.402;2022-12-07T05:54:25;1.08;99.99
63051;SHT30;49136;47.416;19.402;2022-12-07T05:56:50;1.15;99.99
63051;SHT30;49136;47.416;19.402;2022-12-07T05:59:16;1.12;99.99
63051;SHT30;49136;47.416;19.402;2022-12-07T06:01:48;1.15;99.99
63051;SHT30;49136;47.416;19.402;2022-12-07T06:04:13;1.14;99.99
63051;SHT30;49136;47.416;19.402;2022-12-07T06:06:39;1.19;99.99
63051;SHT30;49136;47.416;19.402;2022-12-07T06:09:04;1.19;99.99
63051;SHT30;49136;47.416;19.402;2022-12-07T06:11:30;1.21;99.99
63051;SHT30;49136;47.416;19.402;2022-12-07T06:14:14;1.19;99.99
63051;SHT30;49136;47.416;19.402;2022-12-07T06:16:40;1.24;99.99
63051;SHT30;49136;47.416;19.402;2022-12-07T06:19:05;1.22;99.99
63051;SHT30;49136;47.416;19.402;2022-12-07T06:21:30;1.18;99.99
63051;SHT30;49136;47.416;19.402;2022-12-07T06:23:56;1.22;99.99
63051;SHT30;49136;47.416;19.402;2022-12-07T06:26:21;1.21;99.99
63051;SHT30;49136;47.416;19.402;2022-12-07T06:28:47;1.24;99.99
63051;SHT30;49136;47.416;19.402;2022-12-07T06:31:12;1.24;99.99
63051;SHT30;49136;47.416;19.402;2022-12-07T06:33:38;1.26;99.99
63051;SHT30;49136;47.416;19.402;2022-12-07T06:36:04;1.28;99.99
63051;SHT30;49136;47.416;19.402;2022-12-07T06:38:29;1.29;99.99
63051;SHT30;49136;47.416;19.402;2022-12-07T06:40:55;1.36;99.99
63051;SHT30;49136;47.416;19.402;2022-12-07T06:43:20;1.34;99.99
63051;SHT30;49136;47.416;19.402;2022-12-07T06:45:45;1.34;99.99
63051;SHT30;49136;47.416;19.402;2022-12-07T06:48:11;1.40;99.99
63051;SHT30;49136;47.416;19.402;2022-12-07T06:50:36;1.36;99.99
63051;SHT30;49136;47.416;19.402;2022-12-07T06:53:02;1.35;99.99
63051;SHT30;49136;47.416;19.402;2022-12-07T06:55:27;1.36;99.99
63051;SHT30;49136;47.416;19.402;2022-12-07T06:57:53;1.34;99.99
63051;SHT30;49136;47.416;19.402;2022-12-07T07:00:18;1.36;99.99
63051;SHT30;49136;47.416;19.402;2022-12-07T07:02:44;1.44;99.99
63051;SHT30;49136;47.416;19.402;2022-12-07T07:05:09;1.42;99.99
63051;SHT30;49136;47.416;19.402;2022-12-07T07:07:35;1.40;99.99
63051;SHT30;49136;47.416;19.402;2022-12-07T07:10:00;1.44;99.99
63051;SHT30;49136;47.416;19.402;2022-12-07T07:12:26;1.44;99.99
63051;SHT30;49136;47.416;19.402;2022-12-07T07:14:51;1.49;99.99
63051;SHT30;49136;47.416;19.402;2022-12-07T07:17:16;1.53;99.99
63051;SHT30;49136;47.416;19.402;2022-12-07T07:19:42;1.52;99.99
63051;SHT30;49136;47.416;19.402;2022-12-07T07:22:07;1.57;99.99
63051;SHT30;49136;47.416;19.402;2022-12-07T07:24:33;1.60;99.99
63051;SHT30;49136;47.416;19.402;2022-12-07T07:26:58;1.64;99.99
63051;SHT30;49136;47.416;19.402;2022-12-07T07:29:23;1.70;99.99
63051;SHT30;49136;47.416;19.402;2022-12-07T07:31:49;1.77;99.99
63051;SHT30;49136;47.416;19.402;2022-12-07T07:34:14;1.82;99.99
63051;SHT30;49136;47.416;19.402;2022-12-07T07:36:40;1.87;99.99
63051;SHT30;49136;47.416;19.402;2022-12-07T07:39:05;1.91;99.99
63051;SHT30;49136;47.416;19.402;2022-12-07T07:41:31;1.95;99.99
63051;SHT30;49136;47.416;19.402;2022-12-07T07:43:56;1.98;99.99
63051;SHT30;49136;47.416;19.402;2022-12-07T07:46:22;2.02;99.99
63051;SHT30;49136;47.416;19.402;2022-12-07T07:48:47;2.04;99.99
63051;SHT30;49136;47.416;19.402;2022-12-07T07:51:13;2.08;99.99
63051;SHT30;49136;47.416;19.402;2022-12-07T07:53:38;2.15;99.99
63051;SHT30;49136;47.416;19.402;2022-12-07T07:56:04;2.18;99.99
63051;SHT30;49136;47.416;19.402;2022-12-07T07:58:29;2.19;99.99
63051;SHT30;49136;47.416;19.402;2022-12-07T08:00:54;2.26;99.99
63051;SHT30;49136;47.416;19.402;2022-12-07T08:03:20;2.22;99.99
63051;SHT30;49136;47.416;19.402;2022-12-07T08:05:45;2.16;99.99
63051;SHT30;49136;47.416;19.402;2022-12-07T08:08:11;2.29;99.99
63051;SHT30;49136;47.416;19.402;2022-12-07T08:10:37;2.23;99.99
63051;SHT30;49136;47.416;19.402;2022-12-07T08:13:02;2.25;99.99
63051;SHT30;49136;47.416;19.402;2022-12-07T08:15:39;2.40;99.99
63051;SHT30;49136;47.416;19.402;2022-12-07T08:18:05;2.44;99.99
63051;SHT30;49136;47.416;19.402;2022-12-07T08:20:31;2.58;99.99
63051;SHT30;49136;47.416;19.402;2022-12-07T08:22:58;2.62;99.99
63051;SHT30;49136;47.416;19.402;2022-12-07T08:25:23;2.68;99.99
63051;SHT30;49136;47.416;19.402;2022-12-07T08:27:50;2.66;99.99
63051;SHT30;49136;47.416;19.402;2022-12-07T08:30:16;2.78;99.99
63051;SHT30;49136;47.416;19.402;2022-12-07T08:32:41;2.92;99.99
63051;SHT30;49136;47.416;19.402;2022-12-07T08:35:07;2.98;99.99
63051;SHT30;49136;47.416;19.402;2022-12-07T08:37:33;3.10;99.99
63051;SHT30;49136;47.416;19.402;2022-12-07T08:39:58;3.05;99.99
63051;SHT30;49136;47.416;19.402;2022-12-07T08:42:24;3.07;99.99
63051;SHT30;49136;47.416;19.402;2022-12-07T08:44:56;3.13;99.99
63051;SHT30;49136;47.416;19.402;2022-12-07T08:47:23;3.19;99.99
63051;SHT30;49136;47.416;19.402;2022-12-07T08:49:51;3.22;99.99
63051;SHT30;49136;47.416;19.402;2022-12-07T08:52:17;3.22;99.99
63051;SHT30;49136;47.416;19.402;2022-12-07T08:54:43;3.26;99.99
63051;SHT30;49136;47.416;19.402;2022-12-07T08:57:10;3.31;99.99
63051;SHT30;49136;47.416;19.402;2022-12-07T08:59:36;3.30;99.99
63051;SHT30;49136;47.416;19.402;2022-12-07T09:02:03;3.34;99.99
63051;SHT30;49136;47.416;19.402;2022-12-07T09:04:28;3.44;99.99
63051;SHT30;49136;47.416;19.402;2022-12-07T09:06:55;3.51;99.99
63051;SHT30;49136;47.416;19.402;2022-12-07T09:09:20;3.57;99.99
63051;SHT30;49136;47.416;19.402;2022-12-07T09:11:46;3.90;99.99
63051;SHT30;49136;47.416;19.402;2022-12-07T09:14:11;4.06;99.99
63051;SHT30;49136;47.416;19.402;2022-12-07T09:16:38;4.34;99.99
63051;SHT30;49136;47.416;19.402;2022-12-07T09:19:03;4.37;99.99
63051;SHT30;49136;47.416;19.402;2022-12-07T09:21:29;4.35;99.99
63051;SHT30;49136;47.416;19.402;2022-12-07T09:23:55;4.30;99.99
63051;SHT30;49136;47.416;19.402;2022-12-07T09:26:20;4.40;99.99
63051;SHT30;49136;47.416;19.402;2022-12-07T09:28:46;4.38;99.99
63051;SHT30;49136;47.416;19.402;2022-12-07T09:31:11;4.56;99.99
63051;SHT30;49136;47.416;19.402;2022-12-07T09:33:37;4.80;99.99
63051;SHT30;49136;47.416;19.402;2022-12-07T09:36:03;4.83;99.99
63051;SHT30;49136;47.416;19.402;2022-12-07T09:38:29;4.84;99.99
63051;SHT30;49136;47.416;19.402;2022-12-07T09:40:55;4.93;99.99
63051;SHT30;49136;47.416;19.402;2022-12-07T09:43:25;4.86;99.99
63051;SHT30;49136;47.416;19.402;2022-12-07T09:45:53;5.04;99.99
63051;SHT30;49136;47.416;19.402;2022-12-07T09:48:31;5.10;99.99
63051;SHT30;49136;47.416;19.402;2022-12-07T09:50:59;5.01;99.99
63051;SHT30;49136;47.416;19.402;2022-12-07T09:53:28;5.00;99.99
63051;SHT30;49136;47.416;19.402;2022-12-07T09:55:55;5.05;99.99
63051;SHT30;49136;47.416;19.402;2022-12-07T09:58:27;5.07;99.99
63051;SHT30;49136;47.416;19.402;2022-12-07T10:00:57;5.14;99.99
63051;SHT30;49136;47.416;19.402;2022-12-07T10:03:26;5.15;99.99
63051;SHT30;49136;47.416;19.402;2022-12-07T10:05:52;5.27;99.99
63051;SHT30;49136;47.416;19.402;2022-12-07T10:08:18;5.27;99.92
63051;SHT30;49136;47.416;19.402;2022-12-07T10:10:45;5.36;99.99
63051;SHT30;49136;47.416;19.402;2022-12-07T10:13:13;5.45;99.90
63051;SHT30;49136;47.416;19.402;2022-12-07T10:18:31;5.32;99.99
63051;SHT30;49136;47.416;19.402;2022-12-07T10:23:35;5.45;99.76
63051;SHT30;49136;47.416;19.402;2022-12-07T10:26:20;5.57;99.70
63051;SHT30;49136;47.416;19.402;2022-12-07T10:28:46;5.69;99.46
63051;SHT30;49136;47.416;19.402;2022-12-07T10:31:18;5.64;99.34
63051;SHT30;49136;47.416;19.402;2022-12-07T10:33:56;5.56;99.68
63051;SHT30;49136;47.416;19.402;2022-12-07T10:36:33;5.59;99.78
63051;SHT30;49136;47.416;19.402;2022-12-07T10:39:04;5.67;99.23
63051;SHT30;49136;47.416;19.402;2022-12-07T10:41:35;5.74;99.15
63051;SHT30;49136;47.416;19.402;2022-12-07T10:44:03;5.91;99.08
63051;SHT30;49136;47.416;19.402;2022-12-07T10:46:53;6.01;98.97
63051;SHT30;49136;47.416;19.402;2022-12-07T11:03:39;5.69;98.14
63051;SHT30;49136;47.416;19.402;2022-12-07T11:06:14;5.69;98.54
63051;SHT30;49136;47.416;19.402;2022-12-07T11:11:34;6.68;97.18
63051;SHT30;49136;47.416;19.402;2022-12-07T11:14:03;6.89;96.08
63051;SHT30;49136;47.416;19.402;2022-12-07T11:16:39;6.85;95.85
63051;SHT30;49136;47.416;19.402;2022-12-07T11:19:22;6.87;95.42
63051;SHT30;49136;47.416;19.402;2022-12-07T11:21:58;6.87;95.65
63051;SHT30;49136;47.416;19.402;2022-12-07T11:38:01;7.12;93.90
63051;SHT30;49136;47.416;19.402;2022-12-07T11:40:31;7.02;93.51
63051;SHT30;49136;47.416;19.402;2022-12-07T11:43:13;7.03;94.48
63051;SHT30;49136;47.416;19.402;2022-12-07T11:45:43;6.93;94.00
63051;SHT30;49136;47.416;19.402;2022-12-07T11:48:53;7.03;93.71
63051;SHT30;49136;47.416;19.402;2022-12-07T11:51:23;7.27;94.56
63051;SHT30;49136;47.416;19.402;2022-12-07T11:53:51;7.22;93.61
63051;SHT30;49136;47.416;19.402;2022-12-07T11:56:23;7.03;93.14
63051;SHT30;49136;47.416;19.402;2022-12-07T12:01:26;7.03;93.84
63051;SHT30;49136;47.416;19.402;2022-12-07T12:03:58;6.95;93.66
63051;SHT30;49136;47.416;19.402;2022-12-07T12:06:25;6.91;94.44
63051;SHT30;49136;47.416;19.402;2022-12-07T12:09:48;7.12;94.05
63051;SHT30;49136;47.416;19.402;2022-12-07T12:15:23;8.00;91.75
63051;SHT30;49136;47.416;19.402;2022-12-07T12:20:51;8.21;91.07
63051;SHT30;49136;47.416;19.402;2022-12-07T12:23:20;8.16;90.88
63051;SHT30;49136;47.416;19.402;2022-12-07T12:25:52;7.92;90.14
63051;SHT30;49136;47.416;19.402;2022-12-07T12:28:49;7.71;90.71
63051;SHT30;49136;47.416;19.402;2022-12-07T12:34:00;7.59;90.53
63051;SHT30;49136;47.416;19.402;2022-12-07T12:36:46;7.48;90.96
63051;SHT30;49136;47.416;19.402;2022-12-07T12:39:18;7.16;91.86
63051;SHT30;49136;47.416;19.402;2022-12-07T12:46:54;7.09;91.96
63051;SHT30;49136;47.416;19.402;2022-12-07T12:51:54;6.85;92.77
63051;SHT30;49136;47.416;19.402;2022-12-07T12:54:27;6.85;92.62
63051;SHT30;49136;47.416;19.402;2022-12-07T12:57:21;6.74;93.14
63051;SHT30;49136;47.416;19.402;2022-12-07T13:28:39;6.56;88.36
63051;SHT30;49136;47.416;19.402;2022-12-07T13:33:53;6.22;90.26
63051;SHT30;49136;47.416;19.402;2022-12-07T13:36:26;6.12;90.79
63051;SHT30;49136;47.416;19.402;2022-12-07T13:38:59;6.06;91.65
63051;SHT30;49136;47.416;19.402;2022-12-07T13:41:29;5.99;92.05
63051;SHT30;49136;47.416;19.402;2022-12-07T13:44:13;5.90;93.02
63051;SHT30;49136;47.416;19.402;2022-12-07T13:49:25;5.78;93.22
63051;SHT30;49136;47.416;19.402;2022-12-07T13:51:52;5.75;93.24
63051;SHT30;49136;47.416;19.402;2022-12-07T13:54:19;5.63;92.96
63051;SHT30;49136;47.416;19.402;2022-12-07T13:56:49;5.47;93.81
63051;SHT30;49136;47.416;19.402;2022-12-07T13:59:23;5.40;94.33
63051;SHT30;49136;47.416;19.402;2022-12-07T14:01:50;5.24;94.95
63051;SHT30;49136;47.416;19.402;2022-12-07T14:06:51;4.97;95.80
63051;SHT30;49136;47.416;19.402;2022-12-07T14:09:24;4.91;95.94
63051;SHT30;49136;47.416;19.402;2022-12-07T14:11:55;4.90;95.79
63051;SHT30;49136;47.416;19.402;2022-12-07T14:14:23;4.87;95.61
63051;SHT30;49136;47.416;19.402;2022-12-07T14:17:17;4.84;95.82
63051;SHT30;49136;47.416;19.402;2022-12-07T14:19:47;4.86;95.08
63051;SHT30;49136;47.416;19.402;2022-12-07T14:22:33;4.84;94.68
63051;SHT30;49136;47.416;19.402;2022-12-07T14:25:21;4.80;95.24
63051;SHT30;49136;47.416;19.402;2022-12-07T14:27:59;4.81;94.77
63051;SHT30;49136;47.416;19.402;2022-12-07T14:30:28;4.76;94.75
63051;SHT30;49136;47.416;19.402;2022-12-07T14:32:57;4.75;94.92
63051;SHT30;49136;47.416;19.402;2022-12-07T14:35:24;4.80;94.37
63051;SHT30;49136;47.416;19.402;2022-12-07T14:37:50;4.79;94.42
63051;SHT30;49136;47.416;19.402;2022-12-07T14:40:20;4.70;94.41
63051;SHT30;49136;47.416;19.402;2022-12-07T14:42:47;4.66;94.76
63051;SHT30;49136;47.416;19.402;2022-12-07T14:45:20;4.59;94.49
63051;SHT30;49136;47.416;19.402;2022-12-07T14:47:46;4.44;95.07
63051;SHT30;49136;47.416;19.402;2022-12-07T14:50:13;4.35;95.61
63051;SHT30;49136;47.416;19.402;2022-12-07T14:52:40;4.22;96.47
63051;SHT30;49136;47.416;19.402;2022-12-07T14:55:13;4.07;97.31
63051;SHT30;49136;47.416;19.402;2022-12-07T14:57:39;4.00;97.62
63051;SHT30;49136;47.416;19.402;2022-12-07T15:00:05;3.93;97.87
63051;SHT30;49136;47.416;19.402;2022-12-07T15:02:30;3.82;98.78
63051;SHT30;49136;47.416;19.402;2022-12-07T15:04:56;3.71;99.10
63051;SHT30;49136;47.416;19.402;2022-12-07T15:07:21;3.59;99.54
63051;SHT30;49136;47.416;19.402;2022-12-07T15:09:48;3.48;99.99
63051;SHT30;49136;47.416;19.402;2022-12-07T15:12:13;3.37;99.99
63051;SHT30;49136;47.416;19.402;2022-12-07T15:14:39;3.27;99.99
63051;SHT30;49136;47.416;19.402;2022-12-07T15:17:04;3.16;99.99
63051;SHT30;49136;47.416;19.402;2022-12-07T15:19:30;3.06;99.99
63051;SHT30;49136;47.416;19.402;2022-12-07T15:21:56;3.10;99.99
63051;SHT30;49136;47.416;19.402;2022-12-07T15:24:21;3.09;99.99
63051;SHT30;49136;47.416;19.402;2022-12-07T15:26:49;2.98;99.99
63051;SHT30;49136;47.416;19.402;2022-12-07T15:29:14;2.81;99.99
63051;SHT30;49136;47.416;19.402;2022-12-07T15:31:41;2.66;99.99
63051;SHT30;49136;47.416;19.402;2022-12-07T15:34:06;2.54;99.99
63051;SHT30;49136;47.416;19.402;2022-12-07T15:36:33;2.43;99.99
63051;SHT30;49136;47.416;19.402;2022-12-07T15:38:59;2.33;99.99
63051;SHT30;49136;47.416;19.402;2022-12-07T15:41:26;2.15;99.99
63051;SHT30;49136;47.416;19.402;2022-12-07T15:43:51;1.99;99.99
63051;SHT30;49136;47.416;19.402;2022-12-07T15:46:39;2.05;99.99
63051;SHT30;49136;47.416;19.402;2022-12-07T15:49:15;1.98;99.99
63051;SHT30;49136;47.416;19.402;2022-12-07T15:51:41;1.84;99.99
63051;SHT30;49136;47.416;19.402;2022-12-07T15:54:11;1.84;99.99
63051;SHT30;49136;47.416;19.402;2022-12-07T15:56:37;1.63;99.99
63051;SHT30;49136;47.416;19.402;2022-12-07T15:59:03;1.53;99.99
63051;SHT30;49136;47.416;19.402;2022-12-07T16:01:28;1.44;99.99
63051;SHT30;49136;47.416;19.402;2022-12-07T16:03:54;1.38;99.99
63051;SHT30;49136;47.416;19.402;2022-12-07T16:06:19;1.26;99.99
63051;SHT30;49136;47.416;19.402;2022-12-07T16:08:46;1.14;99.99
63051;SHT30;49136;47.416;19.402;2022-12-07T16:11:13;1.08;99.99
63051;SHT30;49136;47.416;19.402;2022-12-07T16:13:38;1.05;99.99
63051;SHT30;49136;47.416;19.402;2022-12-07T16:16:11;1.00;99.99
63051;SHT30;49136;47.416;19.402;2022-12-07T16:18:37;0.91;99.99
63051;SHT30;49136;47.416;19.402;2022-12-07T16:21:03;0.87;99.99
63051;SHT30;49136;47.416;19.402;2022-12-07T16:23:29;1.09;99.99
63051;SHT30;49136;47.416;19.402;2022-12-07T16:25:55;1.17;99.99
63051;SHT30;49136;47.416;19.402;2022-12-07T16:28:28;1.18;99.99
63051;SHT30;49136;47.416;19.402;2022-12-07T16:31:00;1.02;99.99
63051;SHT30;49136;47.416;19.402;2022-12-07T16:33:26;0.88;99.99
63051;SHT30;49136;47.416;19.402;2022-12-07T16:35:51;0.74;99.99
63051;SHT30;49136;47.416;19.402;2022-12-07T16:38:17;0.73;99.99
63051;SHT30;49136;47.416;19.402;2022-12-07T16:40:42;0.59;99.99
63051;SHT30;49136;47.416;19.402;2022-12-07T16:43:14;0.52;99.99
63051;SHT30;49136;47.416;19.402;2022-12-07T16:45:39;0.35;99.99
63051;SHT30;49136;47.416;19.402;2022-12-07T16:48:04;0.26;99.99
63051;SHT30;49136;47.416;19.402;2022-12-07T16:50:30;0.11;99.99
63051;SHT30;49136;47.416;19.402;2022-12-07T16:52:55;0.03;99.99
63051;SHT30;49136;47.416;19.402;2022-12-07T16:55:21;-0.10;99.99
63051;SHT30;49136;47.416;19.402;2022-12-07T16:57:46;-0.17;99.99
63051;SHT30;49136;47.416;19.402;2022-12-07T17:00:12;-0.21;99.99
63051;SHT30;49136;47.416;19.402;2022-12-07T17:02:37;-0.31;99.99
63051;SHT30;49136;47.416;19.402;2022-12-07T17:05:03;-0.38;99.99
63051;SHT30;49136;47.416;19.402;2022-12-07T17:07:29;-0.45;99.99
63051;SHT30;49136;47.416;19.402;2022-12-07T17:09:54;-0.45;99.99
63051;SHT30;49136;47.416;19.402;2022-12-07T17:12:20;-0.44;99.99
63051;SHT30;49136;47.416;19.402;2022-12-07T17:14:45;-0.41;99.99
63051;SHT30;49136;47.416;19.402;2022-12-07T17:17:29;-0.56;99.99
63051;SHT30;49136;47.416;19.402;2022-12-07T17:19:54;-0.70;99.99
63051;SHT30;49136;47.416;19.402;2022-12-07T17:22:20;-0.77;99.99
63051;SHT30;49136;47.416;19.402;2022-12-07T17:24:45;-0.69;99.99
63051;SHT30;49136;47.416;19.402;2022-12-07T17:27:11;-0.86;99.99
63051;SHT30;49136;47.416;19.402;2022-12-07T17:29:36;-0.87;99.99
63051;SHT30;49136;47.416;19.402;2022-12-07T17:32:02;-0.97;99.99
63051;SHT30;49136;47.416;19.402;2022-12-07T17:34:27;-1.00;99.99
63051;SHT30;49136;47.416;19.402;2022-12-07T17:36:53;-0.84;99.99
63051;SHT30;49136;47.416;19.402;2022-12-07T17:39:19;-0.93;99.99